Mauston, WI

2:52 AM CDT on May 07, 2015 (GMT -0500)
Juneau County Weather | | Change Station
CLOSE
Current Station
Personal Weather Station
Location: Mauston, WI
Elevation: 873 ft
Nearby Weather Stations

Elev 873 ft 43.80 °N, 90.07 °W | Updated 5 seconds ago

Mostly Cloudy
Mostly Cloudy
63.0 °F
Feels Like 63.0 °F
N
0.7
Wind Variable Wind from SE
Gusts 1.2 mph

Today
High -- | Low -- °F
--% Chance of Precip.
Yesterday
High -- | Low -- °F
Precip. -- in
5:44 AM 8:09 PM
Waning Gibbous, 89% visible
Pressure 29.98 in
Visibility 9.0 miles
Clouds Overcast 14000 ft
Dew Point 59 °F
Humidity 86%
Rainfall 0.00 in
Snow Depth Not available.
UV 0.0 out of 12
Pollen 10.20 out of 12
Air Quality Not available.
Flu Activity Local Activity
METAR KVOK 070658Z AUTO 13006KT 9SM OVC140 17/17 A2998 RMK AO2 SLP152 T01740174

More Conditions Fewer Conditions

Pressure 29.98 in
Visibility 9.0 miles
Clouds Overcast 14000 ft
Dew Point 59 °F
Humidity 86%
Rainfall 0.00 in
Snow Depth Not available.
UV 0.0 out of 12
Pollen 10.20 out of 12
Air Quality Not available.
Flu Activity Local Activity
METAR KVOK 070658Z AUTO 13006KT 9SM OVC140 17/17 A2998 RMK AO2 SLP152 T01740174

More Conditions Fewer Conditions

10-Day Weather Forecast

Almanac

Astronomy

May. 07, 2015 Rise Set
Actual Time
Civil Twilight
Nautical Twilight
Astronomical Twilight
Moon
Length of Visible Light
Length of Day
Tomorrow will be .
, % of the Moon is Illuminated

Today's Extremes

State Highs State Lows

Community

WunderPhotos

Upload Photos

1,819,126 photos uploaded!

WunderBlogs® & News

Nearby

Air Quality

  Air Quality AQ Index Pollutant
Not available.

Snow Depth

Station Depth Elevation

Earthquake Activity

City Distance Mag. Time & Date
Minimum magnitude displayed is 2.5.

Coastal Water Temperatures

Place Temperature

Stations

Nearby Weather Stations

Station Location Temp. Windchill Dew Point Humidity Wind Precip. Elev Updated Type